Petersburg, VA

6:03 AM EST on January 29, 2015 (GMT -0500)
Conjurer's Neck | Change Station
CLOSE
Current Station
Personal Weather Station
Location: Colonial Heights, VA
Elevation: 59 ft
Nearby Weather Stations

Elev 59 ft 37.29 °N, 77.37 °W | Updated 6 minutes ago

Clear
Clear
20.7 °F
Feels Like 21 °F
N
0.0
Wind Variable Wind from West

Today
High -- | Low -- °F
--% Chance of Precip.
Yesterday
High -- | Low -- °F
Precip. -- in
7:14 AM 5:30 PM
Waxing Gibbous, 73% visible
Pressure 30.35 in
Visibility 10.0 miles
Clouds Clear
Windchill 21 °F
Dew Point 17 °F
Humidity 86%
Rainfall 0.00 in
Snow Depth Not available.
UV 0 out of 12
Pollen .10 out of 12
Air Quality Not available.
Flu Activity Not available.
METAR KPTB 291055Z AUTO 00000KT 10SM CLR M08/M09 A3035 RMK AO2 T10801094

More Conditions Fewer Conditions

Pressure 30.35 in
Visibility 10.0 miles
Clouds Clear
Windchill 21 °F
Dew Point 17 °F
Humidity 86%
Rainfall 0.00 in
Snow Depth Not available.
UV 0 out of 12
Pollen .10 out of 12
Air Quality Not available.
Flu Activity Not available.
METAR KPTB 291055Z AUTO 00000KT 10SM CLR M08/M09 A3035 RMK AO2 T10801094

More Conditions Fewer Conditions

10-Day Weather Forecast

Almanac

Astronomy

Jan. 29, 2015 Rise Set
Actual Time
Civil Twilight
Nautical Twilight
Astronomical Twilight
Moon
Length of Visible Light
Length of Day
Tomorrow will be .
, % of the Moon is Illuminated

Today's Extremes

State Highs State Lows

Community

WunderPhotos

Upload Photos

1,791,390 photos uploaded!

WunderBlogs® & News

Nearby

Air Quality

  Air Quality AQ Index Pollutant
Not available.

Snow Depth

Station Depth Elevation

Earthquake Activity

City Distance Mag. Time & Date
Minimum magnitude displayed is 2.5.

Coastal Water Temperatures

Place Temperature

Nearby Weather Stations